Orient, Washington
Current Conditions -  °F | °C
As of 8:00 AM on Friday 24 Oct 2014 (Local Time) from CYCG Reporting Station
Haze Haze  
Wind Chill: 39°   Ceiling: 14000
Heat Index: 39°   Visibility: 4mi
Dew Point: 39°   Wind: 2mph
Humidity: 100%   Direction: NA
Pressure: 30.08"   Gusts: NA
Location:  48.87°N, 118.21°W
Report Text: CYCG 241500Z VRB02KT 4SM BR SCT003 OVC140 04/04 A3008 RMK ST4AC4 SLP197
Loading
Personal Weather Stations






























Interactive Weather Map
Tropical Storm Tracking
New forecast layout! Learn more

10-Day Weather Forecast

Advertisements
Track Severe Weather on mobile